sensor_id;sensor_type;location;lat;lon;timestamp;pressure;altitude;pressure_sealevel;temperature;humidity
80927;BME280;70385;44.538;18.532;2024-01-07T00:01:03;97462.69;;;5.28;100.00
80927;BME280;70385;44.538;18.532;2024-01-07T00:03:29;97472.31;;;5.26;100.00
80927;BME280;70385;44.538;18.532;2024-01-07T00:05:57;97475.28;;;5.18;100.00
80927;BME280;70385;44.538;18.532;2024-01-07T00:08:23;97479.06;;;5.12;100.00
80927;BME280;70385;44.538;18.532;2024-01-07T00:10:49;97471.28;;;5.12;100.00
80927;BME280;70385;44.538;18.532;2024-01-07T00:13:17;97467.19;;;5.08;100.00
80927;BME280;70385;44.538;18.532;2024-01-07T00:15:43;97469.59;;;5.11;100.00
80927;BME280;70385;44.538;18.532;2024-01-07T00:18:13;97471.28;;;5.12;100.00
80927;BME280;70385;44.538;18.532;2024-01-07T00:20:39;97476.63;;;5.09;100.00
80927;BME280;70385;44.538;18.532;2024-01-07T00:23:06;97476.50;;;4.95;100.00
80927;BME280;70385;44.538;18.532;2024-01-07T00:25:31;97473.66;;;4.84;100.00
80927;BME280;70385;44.538;18.532;2024-01-07T00:27:57;97466.53;;;4.87;100.00
80927;BME280;70385;44.538;18.532;2024-01-07T00:30:23;97477.50;;;4.93;100.00
80927;BME280;70385;44.538;18.532;2024-01-07T00:32:49;97478.97;;;5.14;100.00
80927;BME280;70385;44.538;18.532;2024-01-07T00:35:17;97471.09;;;5.15;100.00
80927;BME280;70385;44.538;18.532;2024-01-07T00:37:42;97467.44;;;5.19;100.00
80927;BME280;70385;44.538;18.532;2024-01-07T00:40:09;97467.28;;;5.23;100.00
80927;BME280;70385;44.538;18.532;2024-01-07T00:42:35;97460.66;;;5.33;100.00
80927;BME280;70385;44.538;18.532;2024-01-07T00:45:09;97456.56;;;5.29;100.00
80927;BME280;70385;44.538;18.532;2024-01-07T00:47:35;97465.28;;;5.28;100.00
80927;BME280;70385;44.538;18.532;2024-01-07T00:50:01;97467.13;;;5.26;100.00
80927;BME280;70385;44.538;18.532;2024-01-07T00:52:27;97475.41;;;5.32;100.00
80927;BME280;70385;44.538;18.532;2024-01-07T00:54:53;97466.59;;;5.35;100.00
80927;BME280;70385;44.538;18.532;2024-01-07T00:57:19;97458.06;;;5.33;100.00
80927;BME280;70385;44.538;18.532;2024-01-07T00:59:45;97457.81;;;5.37;100.00
80927;BME280;70385;44.538;18.532;2024-01-07T01:02:11;97458.56;;;5.39;100.00
80927;BME280;70385;44.538;18.532;2024-01-07T01:04:38;97461.44;;;5.35;100.00
80927;BME280;70385;44.538;18.532;2024-01-07T01:07:05;97458.94;;;5.49;100.00
80927;BME280;70385;44.538;18.532;2024-01-07T01:09:33;97461.03;;;5.42;100.00
80927;BME280;70385;44.538;18.532;2024-01-07T01:11:59;97459.44;;;5.40;100.00
80927;BME280;70385;44.538;18.532;2024-01-07T01:14:26;97462.34;;;5.34;100.00
80927;BME280;70385;44.538;18.532;2024-01-07T01:16:52;97468.63;;;5.30;100.00
80927;BME280;70385;44.538;18.532;2024-01-07T01:19:18;97468.13;;;5.23;100.00
80927;BME280;70385;44.538;18.532;2024-01-07T01:21:44;97473.81;;;5.30;100.00
80927;BME280;70385;44.538;18.532;2024-01-07T01:24:09;97471.13;;;5.31;100.00
80927;BME280;70385;44.538;18.532;2024-01-07T01:26:36;97466.94;;;5.29;100.00
80927;BME280;70385;44.538;18.532;2024-01-07T01:29:05;97479.84;;;5.30;100.00
80927;BME280;70385;44.538;18.532;2024-01-07T01:31:31;97482.34;;;5.32;100.00
80927;BME280;70385;44.538;18.532;2024-01-07T01:33:58;97475.31;;;5.34;100.00
80927;BME280;70385;44.538;18.532;2024-01-07T01:36:24;97483.84;;;5.36;100.00
80927;BME280;70385;44.538;18.532;2024-01-07T01:38:50;97482.91;;;5.37;100.00
80927;BME280;70385;44.538;18.532;2024-01-07T01:41:16;97486.13;;;5.42;100.00
80927;BME280;70385;44.538;18.532;2024-01-07T01:43:42;97492.06;;;5.44;100.00
80927;BME280;70385;44.538;18.532;2024-01-07T01:46:08;97484.88;;;5.49;100.00
80927;BME280;70385;44.538;18.532;2024-01-07T01:48:35;97486.88;;;5.44;100.00
80927;BME280;70385;44.538;18.532;2024-01-07T01:51:02;97493.56;;;5.48;100.00
80927;BME280;70385;44.538;18.532;2024-01-07T01:53:28;97486.53;;;5.50;100.00
80927;BME280;70385;44.538;18.532;2024-01-07T01:55:56;97487.72;;;5.60;100.00
80927;BME280;70385;44.538;18.532;2024-01-07T01:58:23;97481.53;;;5.63;100.00
80927;BME280;70385;44.538;18.532;2024-01-07T02:00:50;97466.19;;;5.58;100.00
80927;BME280;70385;44.538;18.532;2024-01-07T02:03:19;97473.84;;;5.61;100.00
80927;BME280;70385;44.538;18.532;2024-01-07T02:05:45;97476.16;;;5.66;100.00
80927;BME280;70385;44.538;18.532;2024-01-07T02:08:11;97467.13;;;5.73;100.00
80927;BME280;70385;44.538;18.532;2024-01-07T02:10:37;97468.88;;;5.72;100.00
80927;BME280;70385;44.538;18.532;2024-01-07T02:13:03;97464.44;;;5.74;100.00
80927;BME280;70385;44.538;18.532;2024-01-07T02:15:30;97468.56;;;5.78;100.00
80927;BME280;70385;44.538;18.532;2024-01-07T02:17:56;97460.59;;;5.82;100.00
80927;BME280;70385;44.538;18.532;2024-01-07T02:20:22;97467.47;;;5.83;100.00
80927;BME280;70385;44.538;18.532;2024-01-07T02:22:48;97452.13;;;5.78;100.00
80927;BME280;70385;44.538;18.532;2024-01-07T02:25:14;97460.50;;;5.83;100.00
80927;BME280;70385;44.538;18.532;2024-01-07T02:27:40;97451.88;;;5.83;100.00
80927;BME280;70385;44.538;18.532;2024-01-07T02:30:06;97453.72;;;5.81;100.00
80927;BME280;70385;44.538;18.532;2024-01-07T02:32:33;97450.31;;;5.80;100.00
80927;BME280;70385;44.538;18.532;2024-01-07T02:35:00;97451.88;;;5.83;100.00
80927;BME280;70385;44.538;18.532;2024-01-07T02:37:26;97467.28;;;5.86;100.00
80927;BME280;70385;44.538;18.532;2024-01-07T02:39:52;97456.31;;;5.81;100.00
80927;BME280;70385;44.538;18.532;2024-01-07T02:42:18;97463.94;;;5.84;100.00
80927;BME280;70385;44.538;18.532;2024-01-07T02:44:44;97461.44;;;5.82;100.00
80927;BME280;70385;44.538;18.532;2024-01-07T02:47:10;97459.06;;;5.77;100.00
80927;BME280;70385;44.538;18.532;2024-01-07T02:49:35;97457.41;;;5.76;100.00
80927;BME280;70385;44.538;18.532;2024-01-07T02:52:01;97458.22;;;5.77;100.00
80927;BME280;70385;44.538;18.532;2024-01-07T02:54:27;97447.19;;;5.73;100.00
80927;BME280;70385;44.538;18.532;2024-01-07T02:56:53;97444.41;;;5.76;100.00
80927;BME280;70385;44.538;18.532;2024-01-07T02:59:19;97440.84;;;5.79;100.00
80927;BME280;70385;44.538;18.532;2024-01-07T03:01:46;97435.56;;;5.81;100.00
80927;BME280;70385;44.538;18.532;2024-01-07T03:04:15;97438.63;;;5.87;100.00
80927;BME280;70385;44.538;18.532;2024-01-07T03:06:41;97428.53;;;5.83;100.00
80927;BME280;70385;44.538;18.532;2024-01-07T03:09:07;97437.97;;;5.84;100.00
80927;BME280;70385;44.538;18.532;2024-01-07T03:11:33;97425.50;;;5.74;100.00
80927;BME280;70385;44.538;18.532;2024-01-07T03:14:05;97434.81;;;5.78;100.00
80927;BME280;70385;44.538;18.532;2024-01-07T03:16:30;97429.13;;;5.72;100.00
80927;BME280;70385;44.538;18.532;2024-01-07T03:18:56;97434.13;;;5.75;100.00
80927;BME280;70385;44.538;18.532;2024-01-07T03:21:23;97433.66;;;5.68;100.00
80927;BME280;70385;44.538;18.532;2024-01-07T03:23:51;97435.66;;;5.63;100.00
80927;BME280;70385;44.538;18.532;2024-01-07T03:26:18;97436.69;;;5.61;100.00
80927;BME280;70385;44.538;18.532;2024-01-07T03:28:45;97442.00;;;5.58;100.00
80927;BME280;70385;44.538;18.532;2024-01-07T03:31:14;97431.16;;;5.51;100.00
80927;BME280;70385;44.538;18.532;2024-01-07T03:33:41;97444.38;;;5.46;100.00
80927;BME280;70385;44.538;18.532;2024-01-07T03:36:12;97442.34;;;5.36;100.00
80927;BME280;70385;44.538;18.532;2024-01-07T03:38:40;97448.81;;;5.29;100.00
80927;BME280;70385;44.538;18.532;2024-01-07T03:41:08;97446.53;;;5.23;100.00
80927;BME280;70385;44.538;18.532;2024-01-07T03:43:34;97448.53;;;5.17;100.00
80927;BME280;70385;44.538;18.532;2024-01-07T03:46:00;97464.09;;;5.17;100.00
80927;BME280;70385;44.538;18.532;2024-01-07T03:48:26;97471.09;;;5.15;100.00
80927;BME280;70385;44.538;18.532;2024-01-07T03:50:52;97460.25;;;5.09;100.00
80927;BME280;70385;44.538;18.532;2024-01-07T03:53:19;97459.22;;;5.11;100.00
80927;BME280;70385;44.538;18.532;2024-01-07T03:55:46;97454.13;;;5.10;100.00
80927;BME280;70385;44.538;18.532;2024-01-07T03:58:12;97456.56;;;5.13;100.00
80927;BME280;70385;44.538;18.532;2024-01-07T04:00:38;97459.22;;;5.11;100.00
80927;BME280;70385;44.538;18.532;2024-01-07T04:03:04;97467.94;;;5.10;100.00
80927;BME280;70385;44.538;18.532;2024-01-07T04:05:30;97462.41;;;5.16;100.00
80927;BME280;70385;44.538;18.532;2024-01-07T04:07:56;97472.78;;;5.16;100.00
80927;BME280;70385;44.538;18.532;2024-01-07T04:10:22;97472.47;;;5.23;100.00
80927;BME280;70385;44.538;18.532;2024-01-07T04:12:48;97472.16;;;5.44;100.00
80927;BME280;70385;44.538;18.532;2024-01-07T04:15:14;97472.31;;;5.57;100.00
80927;BME280;70385;44.538;18.532;2024-01-07T04:17:39;97477.00;;;5.66;100.00
80927;BME280;70385;44.538;18.532;2024-01-07T04:20:06;97479.59;;;5.66;100.00
80927;BME280;70385;44.538;18.532;2024-01-07T04:22:33;97479.50;;;5.68;100.00
80927;BME280;70385;44.538;18.532;2024-01-07T04:24:59;97491.72;;;5.66;100.00
80927;BME280;70385;44.538;18.532;2024-01-07T04:27:26;97490.06;;;5.81;100.00
80927;BME280;70385;44.538;18.532;2024-01-07T04:29:51;97499.53;;;5.82;100.00
80927;BME280;70385;44.538;18.532;2024-01-07T04:32:17;97501.38;;;5.95;100.00
80927;BME280;70385;44.538;18.532;2024-01-07T04:34:43;97502.88;;;5.99;100.00
80927;BME280;70385;44.538;18.532;2024-01-07T04:37:09;97518.84;;;6.07;100.00
80927;BME280;70385;44.538;18.532;2024-01-07T04:39:35;97520.72;;;6.05;100.00
80927;BME280;70385;44.538;18.532;2024-01-07T04:42:02;97534.53;;;6.06;100.00
80927;BME280;70385;44.538;18.532;2024-01-07T04:44:28;97530.25;;;6.05;100.00
80927;BME280;70385;44.538;18.532;2024-01-07T04:46:55;97524.31;;;6.03;100.00
80927;BME280;70385;44.538;18.532;2024-01-07T04:49:21;97516.53;;;6.03;100.00
80927;BME280;70385;44.538;18.532;2024-01-07T04:51:47;97527.94;;;6.00;100.00
80927;BME280;70385;44.538;18.532;2024-01-07T04:54:12;97526.16;;;6.01;100.00
80927;BME280;70385;44.538;18.532;2024-01-07T04:56:39;97516.28;;;5.92;100.00
80927;BME280;70385;44.538;18.532;2024-01-07T04:59:05;97513.78;;;5.90;100.00
80927;BME280;70385;44.538;18.532;2024-01-07T05:01:34;97509.63;;;5.86;100.00
80927;BME280;70385;44.538;18.532;2024-01-07T05:04:02;97511.22;;;5.89;100.00
80927;BME280;70385;44.538;18.532;2024-01-07T05:06:28;97510.34;;;5.90;100.00
80927;BME280;70385;44.538;18.532;2024-01-07T05:08:55;97512.16;;;5.88;100.00
80927;BME280;70385;44.538;18.532;2024-01-07T05:11:20;97525.03;;;5.89;100.00
80927;BME280;70385;44.538;18.532;2024-01-07T05:13:49;97523.38;;;5.88;100.00
80927;BME280;70385;44.538;18.532;2024-01-07T05:16:19;97531.84;;;5.92;100.00
80927;BME280;70385;44.538;18.532;2024-01-07T05:18:45;97527.41;;;5.94;100.00
80927;BME280;70385;44.538;18.532;2024-01-07T05:21:15;97534.28;;;5.95;100.00
80927;BME280;70385;44.538;18.532;2024-01-07T05:23:41;97531.59;;;5.96;100.00
80927;BME280;70385;44.538;18.532;2024-01-07T05:26:07;97544.25;;;6.02;100.00
80927;BME280;70385;44.538;18.532;2024-01-07T05:28:33;97546.84;;;6.02;100.00
80927;BME280;70385;44.538;18.532;2024-01-07T05:30:59;97545.84;;;6.05;100.00
80927;BME280;70385;44.538;18.532;2024-01-07T05:33:25;97548.34;;;6.06;100.00
80927;BME280;70385;44.538;18.532;2024-01-07T05:35:53;97550.44;;;6.00;100.00
80927;BME280;70385;44.538;18.532;2024-01-07T05:38:19;97546.75;;;6.04;100.00
80927;BME280;70385;44.538;18.532;2024-01-07T05:40:45;97542.50;;;6.03;100.00
80927;BME280;70385;44.538;18.532;2024-01-07T05:43:12;97550.00;;;6.07;100.00
80927;BME280;70385;44.538;18.532;2024-01-07T05:45:38;97538.13;;;6.03;100.00
80927;BME280;70385;44.538;18.532;2024-01-07T05:48:04;97546.59;;;6.07;100.00
80927;BME280;70385;44.538;18.532;2024-01-07T05:50:29;97544.75;;;6.09;100.00
80927;BME280;70385;44.538;18.532;2024-01-07T05:52:56;97554.13;;;6.12;100.00
80927;BME280;70385;44.538;18.532;2024-01-07T05:55:22;97553.72;;;6.19;100.00
80927;BME280;70385;44.538;18.532;2024-01-07T05:57:49;97558.72;;;6.22;100.00
80927;BME280;70385;44.538;18.532;2024-01-07T06:00:15;97558.63;;;6.24;100.00
80927;BME280;70385;44.538;18.532;2024-01-07T06:02:41;97568.00;;;6.26;100.00
80927;BME280;70385;44.538;18.532;2024-01-07T06:05:07;97556.88;;;6.24;100.00
80927;BME280;70385;44.538;18.532;2024-01-07T06:07:34;97558.19;;;6.31;100.00
80927;BME280;70385;44.538;18.532;2024-01-07T06:10:00;97559.69;;;6.35;100.00
80927;BME280;70385;44.538;18.532;2024-01-07T06:12:26;97574.63;;;6.32;100.00
80927;BME280;70385;44.538;18.532;2024-01-07T06:14:53;97558.38;;;6.28;100.00
80927;BME280;70385;44.538;18.532;2024-01-07T06:17:19;97568.59;;;6.31;100.00
80927;BME280;70385;44.538;18.532;2024-01-07T06:19:45;97554.84;;;6.29;100.00
80927;BME280;70385;44.538;18.532;2024-01-07T06:22:10;97561.88;;;6.27;100.00
80927;BME280;70385;44.538;18.532;2024-01-07T06:24:36;97560.88;;;6.30;100.00
80927;BME280;70385;44.538;18.532;2024-01-07T06:27:02;97562.56;;;6.31;100.00
80927;BME280;70385;44.538;18.532;2024-01-07T06:29:29;97560.03;;;6.29;100.00
80927;BME280;70385;44.538;18.532;2024-01-07T06:31:55;97564.22;;;6.32;100.00
80927;BME280;70385;44.538;18.532;2024-01-07T06:34:21;97568.59;;;6.31;100.00
80927;BME280;70385;44.538;18.532;2024-01-07T06:36:47;97570.34;;;6.31;100.00
80927;BME280;70385;44.538;18.532;2024-01-07T06:39:12;97580.41;;;6.37;100.00
80927;BME280;70385;44.538;18.532;2024-01-07T06:41:38;97582.16;;;6.36;100.00
80927;BME280;70385;44.538;18.532;2024-01-07T06:44:04;97576.38;;;6.31;100.00
80927;BME280;70385;44.538;18.532;2024-01-07T06:46:30;97584.16;;;6.31;100.00
80927;BME280;70385;44.538;18.532;2024-01-07T06:48:56;97583.41;;;6.29;100.00
80927;BME280;70385;44.538;18.532;2024-01-07T06:51:21;97592.72;;;6.33;100.00
80927;BME280;70385;44.538;18.532;2024-01-07T06:53:47;97584.69;;;6.38;100.00
80927;BME280;70385;44.538;18.532;2024-01-07T06:56:14;97597.59;;;6.39;100.00
80927;BME280;70385;44.538;18.532;2024-01-07T06:58:41;97600.19;;;6.39;100.00
80927;BME280;70385;44.538;18.532;2024-01-07T07:01:07;97601.25;;;6.35;100.00
80927;BME280;70385;44.538;18.532;2024-01-07T07:03:33;97599.34;;;6.39;100.00
80927;BME280;70385;44.538;18.532;2024-01-07T07:05:59;97613.81;;;6.43;100.00
80927;BME280;70385;44.538;18.532;2024-01-07T07:08:25;97625.47;;;6.36;100.00
80927;BME280;70385;44.538;18.532;2024-01-07T07:10:51;97636.63;;;6.38;100.00
80927;BME280;70385;44.538;18.532;2024-01-07T07:13:17;97641.00;;;6.37;100.00
80927;BME280;70385;44.538;18.532;2024-01-07T07:15:43;97634.13;;;6.36;100.00
80927;BME280;70385;44.538;18.532;2024-01-07T07:18:11;97640.91;;;6.39;100.00
80927;BME280;70385;44.538;18.532;2024-01-07T07:20:37;97634.78;;;6.40;100.00
80927;BME280;70385;44.538;18.532;2024-01-07T07:23:03;97633.03;;;6.41;100.00
80927;BME280;70385;44.538;18.532;2024-01-07T07:25:29;97627.84;;;6.41;100.00
80927;BME280;70385;44.538;18.532;2024-01-07T07:27:55;97631.25;;;6.41;100.00
80927;BME280;70385;44.538;18.532;2024-01-07T07:30:22;97624.22;;;6.43;100.00
80927;BME280;70385;44.538;18.532;2024-01-07T07:32:48;97628.75;;;6.39;100.00
80927;BME280;70385;44.538;18.532;2024-01-07T07:35:14;97634.63;;;6.43;100.00
80927;BME280;70385;44.538;18.532;2024-01-07T07:37:40;97635.63;;;6.41;100.00
80927;BME280;70385;44.538;18.532;2024-01-07T07:40:06;97632.00;;;6.43;100.00
80927;BME280;70385;44.538;18.532;2024-01-07T07:42:39;97638.22;;;6.41;100.00
80927;BME280;70385;44.538;18.532;2024-01-07T07:45:09;97628.06;;;6.36;100.00
80927;BME280;70385;44.538;18.532;2024-01-07T07:47:34;97625.56;;;6.34;100.00
80927;BME280;70385;44.538;18.532;2024-01-07T07:50:02;97636.78;;;6.35;100.00
80927;BME280;70385;44.538;18.532;2024-01-07T07:52:28;97639.47;;;6.33;100.00
80927;BME280;70385;44.538;18.532;2024-01-07T07:54:54;97641.13;;;6.34;100.00
80927;BME280;70385;44.538;18.532;2024-01-07T07:57:21;97646.41;;;6.33;100.00
80927;BME280;70385;44.538;18.532;2024-01-07T07:59:50;97647.88;;;6.38;100.00
80927;BME280;70385;44.538;18.532;2024-01-07T08:02:17;97645.25;;;6.38;100.00
80927;BME280;70385;44.538;18.532;2024-01-07T08:04:43;97647.25;;;6.33;100.00
80927;BME280;70385;44.538;18.532;2024-01-07T08:07:10;97646.25;;;6.36;100.00
80927;BME280;70385;44.538;18.532;2024-01-07T08:09:36;97655.56;;;6.40;100.00
80927;BME280;70385;44.538;18.532;2024-01-07T08:12:05;97659.31;;;6.34;100.00
80927;BME280;70385;44.538;18.532;2024-01-07T08:14:32;97662.84;;;6.33;100.00
80927;BME280;70385;44.538;18.532;2024-01-07T08:16:58;97665.44;;;6.33;100.00
80927;BME280;70385;44.538;18.532;2024-01-07T08:19:25;97677.34;;;6.37;100.00
80927;BME280;70385;44.538;18.532;2024-01-07T08:21:51;97679.97;;;6.37;100.00
80927;BME280;70385;44.538;18.532;2024-01-07T08:24:18;97684.91;;;6.42;100.00
80927;BME280;70385;44.538;18.532;2024-01-07T08:26:44;97683.88;;;6.45;100.00
80927;BME280;70385;44.538;18.532;2024-01-07T08:29:10;97673.31;;;6.48;100.00
80927;BME280;70385;44.538;18.532;2024-01-07T08:31:35;97686.66;;;6.42;100.00
80927;BME280;70385;44.538;18.532;2024-01-07T08:34:02;97695.19;;;6.44;100.00
80927;BME280;70385;44.538;18.532;2024-01-07T08:36:29;97697.97;;;6.41;100.00
80927;BME280;70385;44.538;18.532;2024-01-07T08:38:55;97698.97;;;6.38;100.00
80927;BME280;70385;44.538;18.532;2024-01-07T08:41:21;97700.66;;;6.39;100.00
80927;BME280;70385;44.538;18.532;2024-01-07T08:43:47;97698.38;;;6.49;100.00
80927;BME280;70385;44.538;18.532;2024-01-07T08:46:16;97701.16;;;6.46;100.00
80927;BME280;70385;44.538;18.532;2024-01-07T08:48:42;97704.19;;;6.38;100.00
80927;BME280;70385;44.538;18.532;2024-01-07T08:51:08;97702.41;;;6.38;100.00
80927;BME280;70385;44.538;18.532;2024-01-07T08:53:34;97717.00;;;6.41;100.00
80927;BME280;70385;44.538;18.532;2024-01-07T08:56:00;97707.69;;;6.37;100.00
80927;BME280;70385;44.538;18.532;2024-01-07T08:58:35;97713.66;;;6.39;100.00
80927;BME280;70385;44.538;18.532;2024-01-07T09:01:28;97712.06;;;6.36;100.00
80927;BME280;70385;44.538;18.532;2024-01-07T09:03:54;97722.09;;;6.43;100.00
80927;BME280;70385;44.538;18.532;2024-01-07T09:06:20;97706.84;;;6.36;100.00
80927;BME280;70385;44.538;18.532;2024-01-07T09:08:46;97723.94;;;6.41;100.00
80927;BME280;70385;44.538;18.532;2024-01-07T09:11:12;97707.59;;;6.38;100.00
80927;BME280;70385;44.538;18.532;2024-01-07T09:13:38;97711.03;;;6.39;100.00
80927;BME280;70385;44.538;18.532;2024-01-07T09:16:05;97710.13;;;6.40;100.00
80927;BME280;70385;44.538;18.532;2024-01-07T09:18:31;97712.47;;;6.45;100.00
80927;BME280;70385;44.538;18.532;2024-01-07T09:20:57;97710.22;;;6.38;100.00
80927;BME280;70385;44.538;18.532;2024-01-07T09:23:25;97717.00;;;6.41;100.00
80927;BME280;70385;44.538;18.532;2024-01-07T09:25:52;97710.34;;;6.35;100.00
80927;BME280;70385;44.538;18.532;2024-01-07T09:28:20;97711.19;;;6.36;100.00
80927;BME280;70385;44.538;18.532;2024-01-07T09:30:47;97713.72;;;6.37;100.00
80927;BME280;70385;44.538;18.532;2024-01-07T09:33:13;97714.03;;;6.31;100.00
80927;BME280;70385;44.538;18.532;2024-01-07T09:35:42;97721.06;;;6.29;100.00
80927;BME280;70385;44.538;18.532;2024-01-07T09:38:11;97715.13;;;6.27;100.00
80927;BME280;70385;44.538;18.532;2024-01-07T09:40:39;97717.91;;;6.24;100.00
80927;BME280;70385;44.538;18.532;2024-01-07T09:43:07;97710.84;;;6.26;100.00
80927;BME280;70385;44.538;18.532;2024-01-07T09:45:42;97711.59;;;6.28;100.00
80927;BME280;70385;44.538;18.532;2024-01-07T09:48:11;97707.34;;;6.27;100.00
80927;BME280;70385;44.538;18.532;2024-01-07T09:50:36;97704.06;;;6.24;100.00
80927;BME280;70385;44.538;18.532;2024-01-07T09:53:03;97696.38;;;6.22;100.00
80927;BME280;70385;44.538;18.532;2024-01-07T09:55:40;97705.50;;;6.29;100.00
80927;BME280;70385;44.538;18.532;2024-01-07T09:58:11;97689.31;;;6.24;100.00
80927;BME280;70385;44.538;18.532;2024-01-07T10:00:38;97702.47;;;6.21;100.00
80927;BME280;70385;44.538;18.532;2024-01-07T10:03:04;97700.06;;;6.18;100.00
80927;BME280;70385;44.538;18.532;2024-01-07T10:05:31;97704.31;;;6.19;100.00
80927;BME280;70385;44.538;18.532;2024-01-07T10:07:56;97711.50;;;6.14;100.00
80927;BME280;70385;44.538;18.532;2024-01-07T10:10:26;97702.13;;;6.12;100.00
80927;BME280;70385;44.538;18.532;2024-01-07T10:12:52;97707.16;;;6.15;100.00
80927;BME280;70385;44.538;18.532;2024-01-07T10:15:18;97704.63;;;6.13;100.00
80927;BME280;70385;44.538;18.532;2024-01-07T10:17:45;97702.13;;;6.12;100.00
80927;BME280;70385;44.538;18.532;2024-01-07T10:20:11;97700.44;;;6.11;100.00
80927;BME280;70385;44.538;18.532;2024-01-07T10:22:38;97712.41;;;6.13;100.00
80927;BME280;70385;44.538;18.532;2024-01-07T10:25:05;97716.69;;;6.14;100.00
80927;BME280;70385;44.538;18.532;2024-01-07T10:27:36;97710.66;;;6.14;100.00
80927;BME280;70385;44.538;18.532;2024-01-07T10:30:03;97694.56;;;6.07;100.00
80927;BME280;70385;44.538;18.532;2024-01-07T10:32:29;97701.88;;;6.16;100.00
80927;BME280;70385;44.538;18.532;2024-01-07T10:35:05;97696.25;;;6.08;100.00
80927;BME280;70385;44.538;18.532;2024-01-07T10:37:32;97683.53;;;6.03;100.00
80927;BME280;70385;44.538;18.532;2024-01-07T10:40:00;97686.72;;;6.08;100.00
80927;BME280;70385;44.538;18.532;2024-01-07T10:42:33;97685.63;;;6.13;100.00
80927;BME280;70385;44.538;18.532;2024-01-07T10:45:00;97676.81;;;6.15;100.00
80927;BME280;70385;44.538;18.532;2024-01-07T10:47:30;97684.59;;;6.15;100.00
80927;BME280;70385;44.538;18.532;2024-01-07T10:50:02;97676.81;;;6.15;100.00
80927;BME280;70385;44.538;18.532;2024-01-07T10:52:28;97685.44;;;6.16;100.00
80927;BME280;70385;44.538;18.532;2024-01-07T10:55:04;97690.41;;;6.20;100.00
80927;BME280;70385;44.538;18.532;2024-01-07T10:57:43;97690.25;;;6.23;100.00
80927;BME280;70385;44.538;18.532;2024-01-07T11:00:12;97690.06;;;6.26;100.00
80927;BME280;70385;44.538;18.532;2024-01-07T11:05:50;97685.97;;;6.22;100.00
80927;BME280;70385;44.538;18.532;2024-01-07T11:08:23;97693.44;;;6.28;100.00
80927;BME280;70385;44.538;18.532;2024-01-07T11:11:00;97684.03;;;6.26;100.00
80927;BME280;70385;44.538;18.532;2024-01-07T11:13:35;97684.22;;;6.23;100.00
80927;BME280;70385;44.538;18.532;2024-01-07T11:16:04;97690.06;;;6.26;100.00
80927;BME280;70385;44.538;18.532;2024-01-07T11:18:31;97691.25;;;6.21;100.00
80927;BME280;70385;44.538;18.532;2024-01-07T11:21:00;97680.88;;;6.21;100.00
80927;BME280;70385;44.538;18.532;2024-01-07T11:23:33;97696.09;;;6.27;100.00
80927;BME280;70385;44.538;18.532;2024-01-07T11:26:00;97690.06;;;6.26;100.00
80927;BME280;70385;44.538;18.532;2024-01-07T11:31:15;97687.56;;;6.25;100.00
80927;BME280;70385;44.538;18.532;2024-01-07T11:33:42;97693.25;;;6.31;100.00
80927;BME280;70385;44.538;18.532;2024-01-07T11:36:11;97691.91;;;6.24;100.00
80927;BME280;70385;44.538;18.532;2024-01-07T11:38:44;97689.91;;;6.29;100.00
80927;BME280;70385;44.538;18.532;2024-01-07T11:41:11;97695.28;;;6.26;100.00
80927;BME280;70385;44.538;18.532;2024-01-07T11:43:52;97683.63;;;6.18;100.00
80927;BME280;70385;44.538;18.532;2024-01-07T11:46:18;97692.09;;;6.21;100.00
80927;BME280;70385;44.538;18.532;2024-01-07T11:48:45;97698.97;;;6.22;100.00
80927;BME280;70385;44.538;18.532;2024-01-07T11:51:11;97688.81;;;6.18;100.00
80927;BME280;70385;44.538;18.532;2024-01-07T11:53:37;97700.81;;;6.20;100.00
80927;BME280;70385;44.538;18.532;2024-01-07T11:56:03;97690.59;;;6.17;100.00
80927;BME280;70385;44.538;18.532;2024-01-07T11:58:34;97683.84;;;6.13;100.00
80927;BME280;70385;44.538;18.532;2024-01-07T12:01:01;97690.81;;;6.13;100.00
80927;BME280;70385;44.538;18.532;2024-01-07T12:03:28;97697.59;;;6.15;100.00
80927;BME280;70385;44.538;18.532;2024-01-07T12:05:59;97687.28;;;6.14;100.00
80927;BME280;70385;44.538;18.532;2024-01-07T12:08:46;97690.97;;;6.09;100.00
80927;BME280;70385;44.538;18.532;2024-01-07T12:11:15;97697.75;;;6.12;100.00
80927;BME280;70385;44.538;18.532;2024-01-07T12:13:43;97706.00;;;6.20;100.00
80927;BME280;70385;44.538;18.532;2024-01-07T12:16:12;97709.53;;;6.19;100.00
80927;BME280;70385;44.538;18.532;2024-01-07T12:18:39;97703.41;;;6.20;100.00
80927;BME280;70385;44.538;18.532;2024-01-07T12:21:05;97707.84;;;6.18;100.00
80927;BME280;70385;44.538;18.532;2024-01-07T12:23:35;97701.88;;;6.16;100.00
80927;BME280;70385;44.538;18.532;2024-01-07T12:26:09;97719.41;;;6.28;100.00
80927;BME280;70385;44.538;18.532;2024-01-07T12:28:36;97713.03;;;6.18;100.00
80927;BME280;70385;44.538;18.532;2024-01-07T12:31:03;97713.16;;;6.15;100.00
80927;BME280;70385;44.538;18.532;2024-01-07T12:33:30;97713.16;;;6.15;100.00
80927;BME280;70385;44.538;18.532;2024-01-07T12:35:59;97720.03;;;6.16;100.00
80927;BME280;70385;44.538;18.532;2024-01-07T12:38:28;97712.50;;;6.12;100.00
80927;BME280;70385;44.538;18.532;2024-01-07T12:40:55;97720.97;;;6.15;100.00
80927;BME280;70385;44.538;18.532;2024-01-07T12:43:23;97722.72;;;6.15;100.00
80927;BME280;70385;44.538;18.532;2024-01-07T12:45:49;97711.75;;;6.09;100.00
80927;BME280;70385;44.538;18.532;2024-01-07T12:48:15;97722.88;;;6.12;100.00
80927;BME280;70385;44.538;18.532;2024-01-07T12:50:41;97729.75;;;6.13;100.00
80927;BME280;70385;44.538;18.532;2024-01-07T12:53:14;97736.41;;;6.18;100.00
80927;BME280;70385;44.538;18.532;2024-01-07T12:55:42;97733.94;;;6.15;100.00